sensor_id;sensor_type;location;lat;lon;timestamp;P1;durP1;ratioP1;P2;durP2;ratioP2
57643;SDS011;43474;46.510;6.686;2023-04-27T00:02:24;182.55;;;174.35;;
57643;SDS011;43474;46.510;6.686;2023-04-27T00:04:49;195.10;;;186.30;;
57643;SDS011;43474;46.510;6.686;2023-04-27T00:07:15;186.05;;;177.60;;
57643;SDS011;43474;46.510;6.686;2023-04-27T00:09:41;179.35;;;171.40;;
57643;SDS011;43474;46.510;6.686;2023-04-27T00:12:06;162.93;;;155.55;;
57643;SDS011;43474;46.510;6.686;2023-04-27T00:14:32;142.75;;;136.00;;
57643;SDS011;43474;46.510;6.686;2023-04-27T00:16:57;147.45;;;140.88;;
57643;SDS011;43474;46.510;6.686;2023-04-27T00:19:23;143.23;;;136.57;;
57643;SDS011;43474;46.510;6.686;2023-04-27T00:21:48;143.40;;;136.90;;
57643;SDS011;43474;46.510;6.686;2023-04-27T00:24:14;138.80;;;132.52;;
57643;SDS011;43474;46.510;6.686;2023-04-27T00:26:40;135.38;;;129.23;;
57643;SDS011;43474;46.510;6.686;2023-04-27T00:29:05;128.23;;;122.57;;
57643;SDS011;43474;46.510;6.686;2023-04-27T00:31:31;130.80;;;124.90;;
57643;SDS011;43474;46.510;6.686;2023-04-27T00:33:57;111.88;;;106.85;;
57643;SDS011;43474;46.510;6.686;2023-04-27T00:36:22;103.00;;;98.15;;
57643;SDS011;43474;46.510;6.686;2023-04-27T00:38:48;99.35;;;94.68;;
57643;SDS011;43474;46.510;6.686;2023-04-27T00:41:13;88.55;;;84.43;;
57643;SDS011;43474;46.510;6.686;2023-04-27T00:43:43;81.93;;;78.28;;
57643;SDS011;43474;46.510;6.686;2023-04-27T00:46:10;80.32;;;76.65;;
57643;SDS011;43474;46.510;6.686;2023-04-27T00:48:37;88.13;;;84.15;;
57643;SDS011;43474;46.510;6.686;2023-04-27T00:51:04;86.05;;;82.25;;
57643;SDS011;43474;46.510;6.686;2023-04-27T00:53:30;88.53;;;84.53;;
57643;SDS011;43474;46.510;6.686;2023-04-27T00:55:56;83.65;;;79.78;;
57643;SDS011;43474;46.510;6.686;2023-04-27T00:58:23;67.85;;;64.82;;
57643;SDS011;43474;46.510;6.686;2023-04-27T01:00:48;75.90;;;72.25;;
57643;SDS011;43474;46.510;6.686;2023-04-27T01:03:15;69.40;;;66.32;;
57643;SDS011;43474;46.510;6.686;2023-04-27T01:05:41;67.10;;;63.90;;
57643;SDS011;43474;46.510;6.686;2023-04-27T01:08:07;68.38;;;65.10;;
57643;SDS011;43474;46.510;6.686;2023-04-27T01:10:33;72.30;;;68.22;;
57643;SDS011;43474;46.510;6.686;2023-04-27T01:12:59;75.82;;;72.28;;
57643;SDS011;43474;46.510;6.686;2023-04-27T01:15:25;68.20;;;65.03;;
57643;SDS011;43474;46.510;6.686;2023-04-27T01:18:00;64.13;;;61.25;;
57643;SDS011;43474;46.510;6.686;2023-04-27T01:20:27;57.08;;;54.47;;
57643;SDS011;43474;46.510;6.686;2023-04-27T01:22:55;57.78;;;55.15;;
57643;SDS011;43474;46.510;6.686;2023-04-27T01:25:21;49.92;;;47.22;;
57643;SDS011;43474;46.510;6.686;2023-04-27T01:27:47;57.58;;;54.75;;
57643;SDS011;43474;46.510;6.686;2023-04-27T01:30:12;53.92;;;51.28;;
57643;SDS011;43474;46.510;6.686;2023-04-27T01:32:38;53.65;;;51.20;;
57643;SDS011;43474;46.510;6.686;2023-04-27T01:35:04;59.10;;;56.13;;
57643;SDS011;43474;46.510;6.686;2023-04-27T01:37:30;80.45;;;76.72;;
57643;SDS011;43474;46.510;6.686;2023-04-27T01:39:56;104.85;;;100.05;;
57643;SDS011;43474;46.510;6.686;2023-04-27T01:42:21;132.82;;;126.68;;
57643;SDS011;43474;46.510;6.686;2023-04-27T01:44:47;125.07;;;119.25;;
57643;SDS011;43474;46.510;6.686;2023-04-27T01:47:16;161.63;;;154.23;;
57643;SDS011;43474;46.510;6.686;2023-04-27T01:49:42;133.13;;;127.10;;
57643;SDS011;43474;46.510;6.686;2023-04-27T01:52:08;140.98;;;134.57;;
57643;SDS011;43474;46.510;6.686;2023-04-27T01:54:33;144.05;;;137.35;;
57643;SDS011;43474;46.510;6.686;2023-04-27T01:56:59;155.57;;;148.30;;
57643;SDS011;43474;46.510;6.686;2023-04-27T01:59:26;132.35;;;126.25;;
57643;SDS011;43474;46.510;6.686;2023-04-27T02:01:52;142.82;;;136.30;;
57643;SDS011;43474;46.510;6.686;2023-04-27T02:04:18;170.00;;;162.30;;
57643;SDS011;43474;46.510;6.686;2023-04-27T02:06:45;161.75;;;154.50;;
57643;SDS011;43474;46.510;6.686;2023-04-27T02:09:11;168.27;;;160.55;;
57643;SDS011;43474;46.510;6.686;2023-04-27T02:11:36;157.18;;;150.10;;
57643;SDS011;43474;46.510;6.686;2023-04-27T02:14:02;169.90;;;162.20;;
57643;SDS011;43474;46.510;6.686;2023-04-27T02:16:28;186.43;;;178.00;;
57643;SDS011;43474;46.510;6.686;2023-04-27T02:18:53;170.60;;;162.75;;
57643;SDS011;43474;46.510;6.686;2023-04-27T02:21:19;173.73;;;165.88;;
57643;SDS011;43474;46.510;6.686;2023-04-27T02:23:45;174.95;;;167.20;;
57643;SDS011;43474;46.510;6.686;2023-04-27T02:26:18;175.77;;;167.80;;
57643;SDS011;43474;46.510;6.686;2023-04-27T02:28:44;76.63;;;73.10;;
57643;SDS011;43474;46.510;6.686;2023-04-27T02:31:12;142.43;;;135.90;;
57643;SDS011;43474;46.510;6.686;2023-04-27T02:33:38;112.93;;;107.70;;
57643;SDS011;43474;46.510;6.686;2023-04-27T02:36:06;78.00;;;74.38;;
57643;SDS011;43474;46.510;6.686;2023-04-27T02:38:32;36.72;;;34.92;;
57643;SDS011;43474;46.510;6.686;2023-04-27T02:40:58;75.50;;;71.95;;
57643;SDS011;43474;46.510;6.686;2023-04-27T02:43:24;78.88;;;75.15;;
57643;SDS011;43474;46.510;6.686;2023-04-27T02:45:49;54.58;;;52.00;;
57643;SDS011;43474;46.510;6.686;2023-04-27T02:48:15;49.22;;;46.72;;
57643;SDS011;43474;46.510;6.686;2023-04-27T02:50:41;41.10;;;39.05;;
57643;SDS011;43474;46.510;6.686;2023-04-27T02:53:08;30.98;;;29.42;;
57643;SDS011;43474;46.510;6.686;2023-04-27T02:55:34;31.48;;;29.77;;
57643;SDS011;43474;46.510;6.686;2023-04-27T02:58:00;34.83;;;33.03;;
57643;SDS011;43474;46.510;6.686;2023-04-27T03:00:26;39.60;;;37.40;;
57643;SDS011;43474;46.510;6.686;2023-04-27T03:02:51;40.90;;;38.75;;
57643;SDS011;43474;46.510;6.686;2023-04-27T03:05:17;36.05;;;33.95;;
57643;SDS011;43474;46.510;6.686;2023-04-27T03:07:43;37.40;;;35.53;;
57643;SDS011;43474;46.510;6.686;2023-04-27T03:10:09;30.02;;;28.48;;
57643;SDS011;43474;46.510;6.686;2023-04-27T03:12:35;33.08;;;31.20;;
57643;SDS011;43474;46.510;6.686;2023-04-27T03:15:01;44.05;;;41.90;;
57643;SDS011;43474;46.510;6.686;2023-04-27T03:17:26;51.65;;;49.15;;
57643;SDS011;43474;46.510;6.686;2023-04-27T03:19:52;54.92;;;52.35;;
57643;SDS011;43474;46.510;6.686;2023-04-27T03:22:18;42.08;;;39.97;;
57643;SDS011;43474;46.510;6.686;2023-04-27T03:24:44;33.30;;;31.55;;
57643;SDS011;43474;46.510;6.686;2023-04-27T03:27:10;29.52;;;28.02;;
57643;SDS011;43474;46.510;6.686;2023-04-27T03:29:35;32.20;;;30.15;;
57643;SDS011;43474;46.510;6.686;2023-04-27T03:32:01;30.65;;;28.75;;
57643;SDS011;43474;46.510;6.686;2023-04-27T03:34:28;30.08;;;28.33;;
57643;SDS011;43474;46.510;6.686;2023-04-27T03:36:54;30.58;;;28.83;;
57643;SDS011;43474;46.510;6.686;2023-04-27T03:39:21;33.78;;;32.03;;
57643;SDS011;43474;46.510;6.686;2023-04-27T03:41:47;33.03;;;31.40;;
57643;SDS011;43474;46.510;6.686;2023-04-27T03:44:12;35.08;;;33.33;;
57643;SDS011;43474;46.510;6.686;2023-04-27T03:46:38;34.90;;;33.15;;
57643;SDS011;43474;46.510;6.686;2023-04-27T03:49:03;36.45;;;34.60;;
57643;SDS011;43474;46.510;6.686;2023-04-27T03:51:29;42.45;;;40.42;;
57643;SDS011;43474;46.510;6.686;2023-04-27T03:53:57;36.75;;;34.75;;
57643;SDS011;43474;46.510;6.686;2023-04-27T03:56:23;48.15;;;45.95;;
57643;SDS011;43474;46.510;6.686;2023-04-27T03:58:49;51.03;;;48.67;;
57643;SDS011;43474;46.510;6.686;2023-04-27T04:01:14;62.65;;;59.70;;
57643;SDS011;43474;46.510;6.686;2023-04-27T04:03:41;55.15;;;52.47;;
57643;SDS011;43474;46.510;6.686;2023-04-27T04:06:07;59.60;;;56.88;;
57643;SDS011;43474;46.510;6.686;2023-04-27T04:08:33;58.13;;;55.35;;
57643;SDS011;43474;46.510;6.686;2023-04-27T04:10:58;60.72;;;57.88;;
57643;SDS011;43474;46.510;6.686;2023-04-27T04:13:24;52.65;;;50.13;;
57643;SDS011;43474;46.510;6.686;2023-04-27T04:16:06;57.28;;;54.53;;
57643;SDS011;43474;46.510;6.686;2023-04-27T04:18:33;53.03;;;50.53;;
57643;SDS011;43474;46.510;6.686;2023-04-27T04:21:00;58.22;;;55.25;;
57643;SDS011;43474;46.510;6.686;2023-04-27T04:23:26;68.75;;;65.53;;
57643;SDS011;43474;46.510;6.686;2023-04-27T04:25:52;80.93;;;77.07;;
57643;SDS011;43474;46.510;6.686;2023-04-27T04:28:20;77.95;;;74.25;;
57643;SDS011;43474;46.510;6.686;2023-04-27T04:30:46;81.90;;;78.00;;
57643;SDS011;43474;46.510;6.686;2023-04-27T04:33:13;70.28;;;66.93;;
57643;SDS011;43474;46.510;6.686;2023-04-27T04:35:39;61.38;;;58.30;;
57643;SDS011;43474;46.510;6.686;2023-04-27T04:38:08;66.47;;;62.85;;
57643;SDS011;43474;46.510;6.686;2023-04-27T04:40:36;72.93;;;69.38;;
57643;SDS011;43474;46.510;6.686;2023-04-27T04:43:03;70.75;;;67.43;;
57643;SDS011;43474;46.510;6.686;2023-04-27T04:45:29;85.38;;;81.20;;
57643;SDS011;43474;46.510;6.686;2023-04-27T04:47:55;94.05;;;89.55;;
57643;SDS011;43474;46.510;6.686;2023-04-27T04:50:20;79.70;;;75.85;;
57643;SDS011;43474;46.510;6.686;2023-04-27T04:52:47;64.57;;;61.28;;
57643;SDS011;43474;46.510;6.686;2023-04-27T04:55:13;60.47;;;57.35;;
57643;SDS011;43474;46.510;6.686;2023-04-27T04:57:39;52.70;;;49.85;;
57643;SDS011;43474;46.510;6.686;2023-04-27T05:00:05;46.05;;;43.47;;
57643;SDS011;43474;46.510;6.686;2023-04-27T05:02:35;44.50;;;42.20;;
57643;SDS011;43474;46.510;6.686;2023-04-27T05:05:00;41.42;;;39.40;;
57643;SDS011;43474;46.510;6.686;2023-04-27T05:07:26;31.10;;;29.38;;
57643;SDS011;43474;46.510;6.686;2023-04-27T05:09:52;23.42;;;21.75;;
57643;SDS011;43474;46.510;6.686;2023-04-27T05:12:17;19.58;;;18.17;;
57643;SDS011;43474;46.510;6.686;2023-04-27T05:14:43;16.77;;;15.52;;
57643;SDS011;43474;46.510;6.686;2023-04-27T05:17:08;20.45;;;19.05;;
57643;SDS011;43474;46.510;6.686;2023-04-27T05:19:34;23.50;;;21.92;;
57643;SDS011;43474;46.510;6.686;2023-04-27T05:22:00;24.65;;;23.20;;
57643;SDS011;43474;46.510;6.686;2023-04-27T05:24:25;23.73;;;22.42;;
57643;SDS011;43474;46.510;6.686;2023-04-27T05:26:51;24.83;;;23.42;;
57643;SDS011;43474;46.510;6.686;2023-04-27T05:29:16;24.80;;;23.40;;
57643;SDS011;43474;46.510;6.686;2023-04-27T05:31:42;24.98;;;23.58;;
57643;SDS011;43474;46.510;6.686;2023-04-27T05:34:08;28.27;;;26.48;;
57643;SDS011;43474;46.510;6.686;2023-04-27T05:36:34;28.92;;;27.33;;
57643;SDS011;43474;46.510;6.686;2023-04-27T05:39:00;28.70;;;27.25;;
57643;SDS011;43474;46.510;6.686;2023-04-27T05:41:28;29.90;;;28.10;;
57643;SDS011;43474;46.510;6.686;2023-04-27T05:43:53;30.45;;;28.92;;
57643;SDS011;43474;46.510;6.686;2023-04-27T05:46:19;29.42;;;27.88;;
57643;SDS011;43474;46.510;6.686;2023-04-27T05:48:45;31.90;;;30.10;;
57643;SDS011;43474;46.510;6.686;2023-04-27T05:51:11;30.60;;;28.80;;
57643;SDS011;43474;46.510;6.686;2023-04-27T05:53:37;32.28;;;30.58;;
57643;SDS011;43474;46.510;6.686;2023-04-27T05:56:03;28.02;;;26.42;;
57643;SDS011;43474;46.510;6.686;2023-04-27T05:58:30;28.50;;;27.05;;
57643;SDS011;43474;46.510;6.686;2023-04-27T06:00:57;26.25;;;24.95;;
57643;SDS011;43474;46.510;6.686;2023-04-27T06:03:24;37.53;;;35.50;;
57643;SDS011;43474;46.510;6.686;2023-04-27T06:05:57;36.28;;;34.25;;
57643;SDS011;43474;46.510;6.686;2023-04-27T06:08:23;47.88;;;45.50;;
57643;SDS011;43474;46.510;6.686;2023-04-27T06:10:49;34.70;;;32.72;;
57643;SDS011;43474;46.510;6.686;2023-04-27T06:13:15;40.35;;;38.33;;
57643;SDS011;43474;46.510;6.686;2023-04-27T06:15:41;28.45;;;26.98;;
57643;SDS011;43474;46.510;6.686;2023-04-27T06:18:07;31.67;;;29.92;;
57643;SDS011;43474;46.510;6.686;2023-04-27T06:20:33;38.42;;;36.45;;
57643;SDS011;43474;46.510;6.686;2023-04-27T06:23:02;51.88;;;49.22;;
57643;SDS011;43474;46.510;6.686;2023-04-27T06:25:28;80.03;;;75.93;;
57643;SDS011;43474;46.510;6.686;2023-04-27T06:27:53;95.70;;;91.40;;
57643;SDS011;43474;46.510;6.686;2023-04-27T06:30:20;181.68;;;173.60;;
57643;SDS011;43474;46.510;6.686;2023-04-27T06:32:47;204.07;;;194.90;;
57643;SDS011;43474;46.510;6.686;2023-04-27T06:35:13;169.70;;;161.77;;
57643;SDS011;43474;46.510;6.686;2023-04-27T06:37:38;244.52;;;233.40;;
57643;SDS011;43474;46.510;6.686;2023-04-27T06:40:04;279.33;;;266.52;;
57643;SDS011;43474;46.510;6.686;2023-04-27T06:42:31;258.42;;;245.90;;
57643;SDS011;43474;46.510;6.686;2023-04-27T06:44:56;218.43;;;207.77;;
57643;SDS011;43474;46.510;6.686;2023-04-27T06:47:22;157.88;;;150.23;;
57643;SDS011;43474;46.510;6.686;2023-04-27T06:49:48;183.43;;;174.45;;
57643;SDS011;43474;46.510;6.686;2023-04-27T06:52:14;200.02;;;190.23;;
57643;SDS011;43474;46.510;6.686;2023-04-27T06:54:39;221.05;;;210.15;;
57643;SDS011;43474;46.510;6.686;2023-04-27T06:57:05;295.33;;;280.95;;
57643;SDS011;43474;46.510;6.686;2023-04-27T06:59:31;301.42;;;286.75;;
57643;SDS011;43474;46.510;6.686;2023-04-27T07:01:57;320.52;;;305.50;;
57643;SDS011;43474;46.510;6.686;2023-04-27T07:04:22;267.38;;;254.80;;
57643;SDS011;43474;46.510;6.686;2023-04-27T07:06:48;302.55;;;288.55;;
57643;SDS011;43474;46.510;6.686;2023-04-27T07:09:14;289.20;;;275.77;;
57643;SDS011;43474;46.510;6.686;2023-04-27T07:11:39;320.15;;;304.85;;
57643;SDS011;43474;46.510;6.686;2023-04-27T07:14:05;306.95;;;291.98;;
57643;SDS011;43474;46.510;6.686;2023-04-27T07:16:30;354.83;;;336.05;;
57643;SDS011;43474;46.510;6.686;2023-04-27T07:18:56;477.17;;;451.90;;
57643;SDS011;43474;46.510;6.686;2023-04-27T07:21:22;457.08;;;433.25;;
57643;SDS011;43474;46.510;6.686;2023-04-27T07:23:47;469.40;;;445.05;;
57643;SDS011;43474;46.510;6.686;2023-04-27T07:26:13;481.35;;;456.90;;
57643;SDS011;43474;46.510;6.686;2023-04-27T07:28:38;545.47;;;517.05;;
57643;SDS011;43474;46.510;6.686;2023-04-27T07:31:04;509.23;;;482.98;;
57643;SDS011;43474;46.510;6.686;2023-04-27T07:33:33;492.70;;;466.92;;
57643;SDS011;43474;46.510;6.686;2023-04-27T07:36:00;546.83;;;517.22;;
57643;SDS011;43474;46.510;6.686;2023-04-27T07:38:27;503.48;;;477.50;;
57643;SDS011;43474;46.510;6.686;2023-04-27T07:40:56;496.02;;;469.77;;
57643;SDS011;43474;46.510;6.686;2023-04-27T07:43:23;514.35;;;487.17;;
57643;SDS011;43474;46.510;6.686;2023-04-27T07:45:50;484.05;;;458.75;;
57643;SDS011;43474;46.510;6.686;2023-04-27T07:48:16;507.48;;;480.13;;
57643;SDS011;43474;46.510;6.686;2023-04-27T07:50:41;418.08;;;397.10;;
57643;SDS011;43474;46.510;6.686;2023-04-27T07:53:07;487.42;;;461.77;;
57643;SDS011;43474;46.510;6.686;2023-04-27T07:55:32;381.05;;;362.23;;
57643;SDS011;43474;46.510;6.686;2023-04-27T07:57:58;431.35;;;409.42;;
57643;SDS011;43474;46.510;6.686;2023-04-27T08:00:24;421.38;;;400.23;;
57643;SDS011;43474;46.510;6.686;2023-04-27T08:02:53;424.30;;;402.38;;
57643;SDS011;43474;46.510;6.686;2023-04-27T08:05:26;438.23;;;415.35;;
57643;SDS011;43474;46.510;6.686;2023-04-27T08:08:05;448.35;;;424.25;;
57643;SDS011;43474;46.510;6.686;2023-04-27T08:10:33;505.95;;;478.63;;
57643;SDS011;43474;46.510;6.686;2023-04-27T08:12:59;526.85;;;497.58;;
57643;SDS011;43474;46.510;6.686;2023-04-27T08:15:25;482.80;;;456.67;;
57643;SDS011;43474;46.510;6.686;2023-04-27T08:17:51;521.55;;;493.13;;
57643;SDS011;43474;46.510;6.686;2023-04-27T08:20:16;564.97;;;533.55;;
57643;SDS011;43474;46.510;6.686;2023-04-27T08:22:42;541.55;;;512.63;;
57643;SDS011;43474;46.510;6.686;2023-04-27T08:25:08;526.05;;;497.52;;
57643;SDS011;43474;46.510;6.686;2023-04-27T08:27:37;564.47;;;533.00;;
57643;SDS011;43474;46.510;6.686;2023-04-27T08:30:04;545.08;;;514.65;;
57643;SDS011;43474;46.510;6.686;2023-04-27T08:32:30;561.88;;;530.17;;
57643;SDS011;43474;46.510;6.686;2023-04-27T08:34:56;521.20;;;492.23;;
57643;SDS011;43474;46.510;6.686;2023-04-27T08:37:21;534.72;;;505.63;;
57643;SDS011;43474;46.510;6.686;2023-04-27T08:39:47;598.63;;;564.08;;
57643;SDS011;43474;46.510;6.686;2023-04-27T08:42:13;593.00;;;558.38;;
57643;SDS011;43474;46.510;6.686;2023-04-27T08:44:42;574.95;;;542.35;;
57643;SDS011;43474;46.510;6.686;2023-04-27T08:47:08;621.70;;;584.55;;
57643;SDS011;43474;46.510;6.686;2023-04-27T08:49:35;623.75;;;586.72;;
57643;SDS011;43474;46.510;6.686;2023-04-27T08:52:03;526.25;;;496.65;;
57643;SDS011;43474;46.510;6.686;2023-04-27T08:54:34;542.80;;;511.80;;
57643;SDS011;43474;46.510;6.686;2023-04-27T08:57:00;594.60;;;559.85;;
57643;SDS011;43474;46.510;6.686;2023-04-27T08:59:27;531.97;;;503.15;;
57643;SDS011;43474;46.510;6.686;2023-04-27T09:01:52;583.38;;;549.97;;
57643;SDS011;43474;46.510;6.686;2023-04-27T09:04:18;551.17;;;520.47;;
57643;SDS011;43474;46.510;6.686;2023-04-27T09:06:44;564.28;;;533.00;;
57643;SDS011;43474;46.510;6.686;2023-04-27T09:09:20;556.65;;;524.47;;
57643;SDS011;43474;46.510;6.686;2023-04-27T09:11:46;487.58;;;460.85;;
57643;SDS011;43474;46.510;6.686;2023-04-27T09:14:14;552.97;;;522.35;;
57643;SDS011;43474;46.510;6.686;2023-04-27T09:16:45;469.48;;;444.45;;
57643;SDS011;43474;46.510;6.686;2023-04-27T09:19:23;533.63;;;503.02;;
57643;SDS011;43474;46.510;6.686;2023-04-27T09:21:50;457.20;;;432.30;;
57643;SDS011;43474;46.510;6.686;2023-04-27T09:24:16;444.08;;;420.45;;
57643;SDS011;43474;46.510;6.686;2023-04-27T09:26:41;449.13;;;425.55;;
57643;SDS011;43474;46.510;6.686;2023-04-27T09:29:14;411.27;;;390.27;;
57643;SDS011;43474;46.510;6.686;2023-04-27T09:31:40;401.25;;;380.67;;
57643;SDS011;43474;46.510;6.686;2023-04-27T09:34:06;397.65;;;377.38;;
57643;SDS011;43474;46.510;6.686;2023-04-27T09:36:31;425.00;;;403.20;;
57643;SDS011;43474;46.510;6.686;2023-04-27T09:38:57;422.48;;;400.25;;
57643;SDS011;43474;46.510;6.686;2023-04-27T09:41:26;411.88;;;391.05;;
57643;SDS011;43474;46.510;6.686;2023-04-27T09:43:52;465.80;;;440.50;;
57643;SDS011;43474;46.510;6.686;2023-04-27T09:46:19;515.08;;;487.60;;
57643;SDS011;43474;46.510;6.686;2023-04-27T09:48:46;458.45;;;434.50;;
57643;SDS011;43474;46.510;6.686;2023-04-27T09:51:14;414.15;;;392.65;;
57643;SDS011;43474;46.510;6.686;2023-04-27T09:53:53;389.98;;;369.98;;
57643;SDS011;43474;46.510;6.686;2023-04-27T09:59:35;413.13;;;391.58;;
57643;SDS011;43474;46.510;6.686;2023-04-27T10:02:14;359.33;;;341.50;;
57643;SDS011;43474;46.510;6.686;2023-04-27T10:04:48;408.48;;;387.70;;
57643;SDS011;43474;46.510;6.686;2023-04-27T10:07:41;420.13;;;397.65;;
57643;SDS011;43474;46.510;6.686;2023-04-27T10:10:14;365.70;;;347.42;;
57643;SDS011;43474;46.510;6.686;2023-04-27T10:12:41;316.73;;;301.77;;
57643;SDS011;43474;46.510;6.686;2023-04-27T10:15:11;268.58;;;255.98;;
57643;SDS011;43474;46.510;6.686;2023-04-27T10:17:37;274.00;;;261.10;;
57643;SDS011;43474;46.510;6.686;2023-04-27T10:20:06;311.88;;;296.00;;
57643;SDS011;43474;46.510;6.686;2023-04-27T10:22:40;270.13;;;257.27;;
57643;SDS011;43474;46.510;6.686;2023-04-27T10:25:35;248.32;;;236.80;;
57643;SDS011;43474;46.510;6.686;2023-04-27T10:28:03;253.23;;;241.23;;
57643;SDS011;43474;46.510;6.686;2023-04-27T10:30:36;287.23;;;273.63;;
57643;SDS011;43474;46.510;6.686;2023-04-27T10:33:03;251.45;;;239.77;;
57643;SDS011;43474;46.510;6.686;2023-04-27T10:35:34;256.45;;;244.52;;
57643;SDS011;43474;46.510;6.686;2023-04-27T10:40:35;249.73;;;238.10;;
57643;SDS011;43474;46.510;6.686;2023-04-27T10:43:10;226.27;;;215.82;;
57643;SDS011;43474;46.510;6.686;2023-04-27T10:45:37;268.48;;;255.93;;
57643;SDS011;43474;46.510;6.686;2023-04-27T10:48:03;221.02;;;210.65;;
57643;SDS011;43474;46.510;6.686;2023-04-27T10:50:29;249.43;;;237.98;;
57643;SDS011;43474;46.510;6.686;2023-04-27T10:53:03;250.25;;;238.73;;
57643;SDS011;43474;46.510;6.686;2023-04-27T10:55:29;250.45;;;238.75;;
57643;SDS011;43474;46.510;6.686;2023-04-27T10:57:56;242.90;;;231.50;;
57643;SDS011;43474;46.510;6.686;2023-04-27T11:00:26;227.18;;;216.77;;
57643;SDS011;43474;46.510;6.686;2023-04-27T11:02:54;212.80;;;203.18;;
57643;SDS011;43474;46.510;6.686;2023-04-27T11:05:25;200.95;;;191.43;;
57643;SDS011;43474;46.510;6.686;2023-04-27T11:08:04;233.20;;;221.82;;
57643;SDS011;43474;46.510;6.686;2023-04-27T11:10:34;221.50;;;211.30;;
57643;SDS011;43474;46.510;6.686;2023-04-27T11:13:10;201.88;;;192.32;;
57643;SDS011;43474;46.510;6.686;2023-04-27T11:18:14;282.20;;;268.75;;
57643;SDS011;43474;46.510;6.686;2023-04-27T11:20:42;260.08;;;248.13;;
57643;SDS011;43474;46.510;6.686;2023-04-27T11:23:09;252.88;;;240.73;;
57643;SDS011;43474;46.510;6.686;2023-04-27T11:25:38;250.90;;;239.20;;
57643;SDS011;43474;46.510;6.686;2023-04-27T11:28:04;261.75;;;249.52;;
57643;SDS011;43474;46.510;6.686;2023-04-27T11:30:40;233.95;;;222.73;;
57643;SDS011;43474;46.510;6.686;2023-04-27T11:33:07;235.05;;;224.38;;
57643;SDS011;43474;46.510;6.686;2023-04-27T11:35:33;210.50;;;200.98;;
57643;SDS011;43474;46.510;6.686;2023-04-27T11:37:59;264.98;;;252.52;;
57643;SDS011;43474;46.510;6.686;2023-04-27T11:40:24;233.95;;;223.15;;
57643;SDS011;43474;46.510;6.686;2023-04-27T11:42:59;238.05;;;226.90;;
57643;SDS011;43474;46.510;6.686;2023-04-27T11:45:28;266.73;;;254.52;;
57643;SDS011;43474;46.510;6.686;2023-04-27T11:47:56;217.45;;;207.38;;
57643;SDS011;43474;46.510;6.686;2023-04-27T11:50:22;260.45;;;248.23;;
57643;SDS011;43474;46.510;6.686;2023-04-27T11:52:50;226.02;;;215.52;;
57643;SDS011;43474;46.510;6.686;2023-04-27T11:55:18;246.52;;;234.77;;
57643;SDS011;43474;46.510;6.686;2023-04-27T11:57:45;205.88;;;196.43;;
57643;SDS011;43474;46.510;6.686;2023-04-27T12:00:11;224.18;;;213.90;;
57643;SDS011;43474;46.510;6.686;2023-04-27T12:02:39;233.73;;;223.15;;
57643;SDS011;43474;46.510;6.686;2023-04-27T12:05:05;259.60;;;247.43;;
57643;SDS011;43474;46.510;6.686;2023-04-27T12:07:32;207.95;;;198.45;;
57643;SDS011;43474;46.510;6.686;2023-04-27T12:09:58;188.60;;;180.00;;
57643;SDS011;43474;46.510;6.686;2023-04-27T12:12:24;181.32;;;172.88;;
57643;SDS011;43474;46.510;6.686;2023-04-27T12:14:50;205.80;;;196.20;;
57643;SDS011;43474;46.510;6.686;2023-04-27T12:17:16;207.07;;;197.68;;
57643;SDS011;43474;46.510;6.686;2023-04-27T12:19:42;244.13;;;232.95;;
57643;SDS011;43474;46.510;6.686;2023-04-27T12:22:08;231.45;;;220.85;;
57643;SDS011;43474;46.510;6.686;2023-04-27T12:24:34;245.32;;;234.30;;
57643;SDS011;43474;46.510;6.686;2023-04-27T12:27:00;225.30;;;215.13;;
57643;SDS011;43474;46.510;6.686;2023-04-27T12:29:27;237.35;;;226.48;;
57643;SDS011;43474;46.510;6.686;2023-04-27T12:31:53;178.85;;;170.73;;
57643;SDS011;43474;46.510;6.686;2023-04-27T12:34:18;192.57;;;183.90;;
57643;SDS011;43474;46.510;6.686;2023-04-27T12:36:44;158.35;;;151.15;;
57643;SDS011;43474;46.510;6.686;2023-04-27T12:39:12;175.90;;;168.00;;
57643;SDS011;43474;46.510;6.686;2023-04-27T12:41:39;210.82;;;201.05;;
57643;SDS011;43474;46.510;6.686;2023-04-27T12:44:05;199.57;;;190.50;;
57643;SDS011;43474;46.510;6.686;2023-04-27T12:46:31;147.93;;;141.38;;
57643;SDS011;43474;46.510;6.686;2023-04-27T12:48:56;113.03;;;108.00;;
57643;SDS011;43474;46.510;6.686;2023-04-27T12:51:22;150.40;;;143.43;;
57643;SDS011;43474;46.510;6.686;2023-04-27T12:53:48;149.07;;;142.10;;
57643;SDS011;43474;46.510;6.686;2023-04-27T12:56:14;161.20;;;153.88;;
57643;SDS011;43474;46.510;6.686;2023-04-27T12:58:39;144.85;;;138.27;;
57643;SDS011;43474;46.510;6.686;2023-04-27T13:01:06;135.73;;;129.52;;
57643;SDS011;43474;46.510;6.686;2023-04-27T13:03:41;106.88;;;102.00;;
57643;SDS011;43474;46.510;6.686;2023-04-27T13:06:08;140.02;;;133.73;;
57643;SDS011;43474;46.510;6.686;2023-04-27T13:08:37;143.00;;;136.48;;
57643;SDS011;43474;46.510;6.686;2023-04-27T13:11:03;167.15;;;159.68;;
57643;SDS011;43474;46.510;6.686;2023-04-27T13:13:29;159.07;;;151.82;;
57643;SDS011;43474;46.510;6.686;2023-04-27T13:15:54;141.25;;;134.82;;
57643;SDS011;43474;46.510;6.686;2023-04-27T13:18:23;129.25;;;123.47;;
57643;SDS011;43474;46.510;6.686;2023-04-27T13:20:49;154.60;;;147.73;;
57643;SDS011;43474;46.510;6.686;2023-04-27T13:23:15;161.02;;;153.80;;
57643;SDS011;43474;46.510;6.686;2023-04-27T13:25:41;94.50;;;90.15;;
57643;SDS011;43474;46.510;6.686;2023-04-27T13:28:07;128.30;;;122.55;;
57643;SDS011;43474;46.510;6.686;2023-04-27T13:30:33;125.75;;;120.03;;
57643;SDS011;43474;46.510;6.686;2023-04-27T13:32:59;128.88;;;123.15;;
57643;SDS011;43474;46.510;6.686;2023-04-27T13:35:25;128.98;;;123.18;;
57643;SDS011;43474;46.510;6.686;2023-04-27T13:37:51;64.47;;;61.60;;
57643;SDS011;43474;46.510;6.686;2023-04-27T13:40:20;91.25;;;87.20;;
57643;SDS011;43474;46.510;6.686;2023-04-27T13:42:46;110.75;;;105.78;;
57643;SDS011;43474;46.510;6.686;2023-04-27T13:45:12;71.63;;;68.63;;
57643;SDS011;43474;46.510;6.686;2023-04-27T13:47:38;58.83;;;56.35;;
57643;SDS011;43474;46.510;6.686;2023-04-27T13:50:05;65.72;;;62.92;;
57643;SDS011;43474;46.510;6.686;2023-04-27T13:52:33;62.72;;;60.03;;
57643;SDS011;43474;46.510;6.686;2023-04-27T13:54:59;80.82;;;77.35;;
57643;SDS011;43474;46.510;6.686;2023-04-27T13:57:25;51.85;;;49.70;;
57643;SDS011;43474;46.510;6.686;2023-04-27T13:59:51;61.45;;;58.85;;
57643;SDS011;43474;46.510;6.686;2023-04-27T14:02:17;54.90;;;52.55;;
57643;SDS011;43474;46.510;6.686;2023-04-27T14:04:43;48.45;;;46.38;;
57643;SDS011;43474;46.510;6.686;2023-04-27T14:07:08;54.38;;;52.08;;
57643;SDS011;43474;46.510;6.686;2023-04-27T14:09:34;62.75;;;60.00;;
57643;SDS011;43474;46.510;6.686;2023-04-27T14:11:59;57.58;;;55.20;;
57643;SDS011;43474;46.510;6.686;2023-04-27T14:14:25;52.05;;;49.90;;